Longview, WA (98632)

8:36 AM PST on December 27, 2014 (GMT -0800)
Eufaula Heights | Change Station
CLOSE
Current Station
Personal Weather Station
Location: Longview, WA
Elevation: 740 ft
Nearby Weather Stations

Elev 740 ft 46.21 °N, 123.05 °W | Updated 42 seconds ago

Overcast
Overcast
42.3 °F
Feels Like 42 °F
N
1.0
Wind Variable Wind from SSE
Gusts 8.0 mph

Today
High -- | Low -- °F
--% Chance of Precip.
Yesterday
High -- | Low -- °F
Precip. -- in
7:54 AM 4:32 PM
Waxing Crescent, 38% visible
Pressure 30.26 in
Visibility 10.0 miles
Clouds Scattered Clouds 1300 ft
Mostly Cloudy 2200 ft
Overcast 2800 ft
Windchill 42 °F
Dew Point 42 °F
Humidity 98%
Rainfall 0.14 in
Snow Depth Not available.
UV 0 out of 12
Pollen .20 out of 12
Air Quality Not available.
Flu Activity Not available.
METAR KKLS 271615Z 15012KT 10SM SCT013 BKN022 OVC028 07/04 A3026 RMK AO1

More Conditions Fewer Conditions

Pressure 30.26 in
Visibility 10.0 miles
Clouds Scattered Clouds 1300 ft
Mostly Cloudy 2200 ft
Overcast 2800 ft
Windchill 42 °F
Dew Point 42 °F
Humidity 98%
Rainfall 0.14 in
Snow Depth Not available.
UV 0 out of 12
Pollen .20 out of 12
Air Quality Not available.
Flu Activity Not available.
METAR KKLS 271615Z 15012KT 10SM SCT013 BKN022 OVC028 07/04 A3026 RMK AO1

More Conditions Fewer Conditions

10-Day Weather Forecast

Almanac

Astronomy

Dec. 27, 2014 Rise Set
Actual Time
Civil Twilight
Nautical Twilight
Astronomical Twilight
Moon
Length of Visible Light
Length of Day
Tomorrow will be .
, % of the Moon is Illuminated

Today's Extremes

State Highs State Lows

Community

WunderPhotos

Upload Photos

1,780,954 photos uploaded!

WunderBlogs® & News

Nearby

Air Quality

  Air Quality AQ Index Pollutant
Not available.

Snow Depth

Station Depth Elevation

Earthquake Activity

City Distance Mag. Time & Date
Minimum magnitude displayed is 2.5.

Coastal Water Temperatures

Place Temperature

Nearby Weather Stations